Time;durP1;ratioP1;P1;durP2;ratioP2;P2;SDS_P1;SDS_P2;PMS_P1;PMS_P2;Temp;Humidity;BMP_temperature;BMP_pressure;BME280_temperature;BME280_humidity;BME280_pressure;Samples;Min_cycle;Max_cycle;Signal;HPM_P1;HPM_P2
2021/08/02 00:00:16;;;;;;;5.60;4.67;;;15.70;1.00;;;;;;5071194;28;20445;-77
2021/08/02 00:02:54;;;;;;;5.63;5.13;;;15.70;1.00;;;;;;5071524;28;20453;-78
2021/08/02 00:05:22;;;;;;;5.73;5.20;;;15.70;1.00;;;;;;5070246;28;21133;-78
2021/08/02 00:07:55;;;;;;;5.70;5.20;;;15.70;1.00;;;;;;5065072;28;20577;-77
2021/08/02 00:10:24;;;;;;;6.97;5.27;;;15.70;1.00;;;;;;5069844;28;20436;-78
2021/08/02 00:12:58;;;;;;;5.60;5.10;;;15.70;1.00;;;;;;5071840;28;20461;-77
2021/08/02 00:15:25;;;;;;;5.10;4.60;;;15.70;1.00;;;;;;5073746;28;20957;-77
2021/08/02 00:17:52;;;;;;;5.63;5.13;;;15.70;1.00;;;;;;5070865;28;20454;-78
2021/08/02 00:20:23;;;;;;;5.83;5.33;;;15.80;1.00;;;;;;5070665;28;20439;-77
2021/08/02 00:22:50;;;;;;;6.37;5.80;;;15.80;1.00;;;;;;5070327;28;20457;-78
2021/08/02 00:25:17;;;;;;;6.20;4.57;;;15.70;1.00;;;;;;5070935;28;20465;-78
2021/08/02 00:27:45;;;;;;;5.87;5.27;;;15.70;1.00;;;;;;5075949;28;20464;-77
2021/08/02 00:30:13;;;;;;;6.10;5.60;;;15.70;1.00;;;;;;5069944;28;20456;-78
2021/08/02 00:32:40;;;;;;;6.50;5.90;;;15.80;1.00;;;;;;5073149;28;21685;-78
2021/08/02 00:35:07;;;;;;;5.50;5.00;;;15.80;1.00;;;;;;5070856;28;20487;-78
2021/08/02 00:37:39;;;;;;;5.73;5.13;;;15.70;1.00;;;;;;5073066;28;20563;-78
2021/08/02 00:40:32;;;;;;;5.80;5.30;;;15.70;1.00;;;;;;5070717;28;20549;-78
2021/08/02 00:43:03;;;;;;;5.60;5.10;;;15.80;1.00;;;;;;5072238;28;20444;-78
2021/08/02 00:45:33;;;;;;;6.90;6.23;;;15.80;1.00;;;;;;5073263;28;20447;-78
2021/08/02 00:48:05;;;;;;;5.63;5.13;;;15.90;1.00;;;;;;5069019;28;20472;-78
2021/08/02 00:50:34;;;;;;;5.33;4.83;;;15.90;1.00;;;;;;5076808;27;20535;-77
2021/08/02 00:53:04;;;;;;;5.67;5.17;;;15.90;1.00;;;;;;5070466;28;22778;-78
2021/08/02 00:55:34;;;;;;;6.00;5.13;;;16.00;1.00;;;;;;5068927;28;20452;-76
2021/08/02 00:58:04;;;;;;;6.57;5.67;;;16.00;1.00;;;;;;5070529;28;20497;-78
2021/08/02 01:00:32;;;;;;;5.50;4.97;;;16.00;1.00;;;;;;5069549;28;20446;-77
2021/08/02 01:03:05;;;;;;;6.00;5.13;;;16.00;1.00;;;;;;5070874;28;20937;-78
2021/08/02 01:05:35;;;;;;;6.17;5.57;;;16.10;1.00;;;;;;5067812;28;20463;-78
2021/08/02 01:08:05;;;;;;;5.27;4.73;;;16.10;1.00;;;;;;5071048;28;20471;-78
2021/08/02 01:10:35;;;;;;;6.40;5.80;;;16.10;1.00;;;;;;5072063;28;20472;-78
2021/08/02 01:13:03;;;;;;;6.10;5.50;;;16.20;1.00;;;;;;5072148;28;20466;-78
2021/08/02 01:15:32;;;;;;;6.43;5.00;;;16.20;1.00;;;;;;5070824;28;20448;-76
2021/08/02 01:18:00;;;;;;;6.53;5.43;;;16.20;1.00;;;;;;5066705;28;20855;-77
2021/08/02 01:20:30;;;;;;;4.83;4.43;;;16.20;1.00;;;;;;5066517;28;20446;-78
2021/08/02 01:23:01;;;;;;;5.60;5.20;;;16.30;1.00;;;;;;5064766;28;20502;-77
2021/08/02 01:26:10;;;;;;;5.63;5.00;;;16.30;1.00;;;;;;5063638;28;20968;-77
2021/08/02 01:29:14;;;;;;;4.87;4.40;;;16.30;1.00;;;;;;5068572;28;20474;-78
2021/08/02 01:31:41;;;;;;;4.40;4.00;;;16.30;1.00;;;;;;5068213;28;21396;-77
2021/08/02 01:34:08;;;;;;;5.30;4.90;;;16.30;1.00;;;;;;5071289;28;20458;-77
2021/08/02 01:36:35;;;;;;;4.70;4.30;;;16.30;1.00;;;;;;5071699;28;20449;-77
2021/08/02 01:39:04;;;;;;;5.10;4.60;;;16.30;1.00;;;;;;5072300;28;20448;-78
2021/08/02 01:41:30;;;;;;;6.00;5.40;;;16.40;1.00;;;;;;5071137;28;20444;-78
2021/08/02 01:43:57;;;;;;;5.73;5.13;;;16.40;1.00;;;;;;5067961;28;20453;-78
2021/08/02 01:46:34;;;;;;;4.90;4.50;;;16.40;1.00;;;;;;5065796;28;20460;-78
2021/08/02 01:49:08;;;;;;;5.53;4.93;;;16.40;1.00;;;;;;5065146;28;20503;-78
2021/08/02 01:51:40;;;;;;;5.40;4.57;;;16.40;1.00;;;;;;5070852;28;20473;-78
2021/08/02 01:54:19;;;;;;;5.10;4.70;;;16.40;1.00;;;;;;5064792;28;20468;-78
2021/08/02 01:56:51;;;;;;;5.47;4.97;;;16.40;1.00;;;;;;5065609;28;20468;-76
2021/08/02 01:59:20;;;;;;;7.60;5.20;;;16.50;1.00;;;;;;5069531;28;21289;-78
2021/08/02 02:01:53;;;;;;;5.50;4.80;;;16.50;1.00;;;;;;5072361;28;20439;-78
2021/08/02 02:04:25;;;;;;;5.37;4.87;;;16.50;1.00;;;;;;5072554;28;20846;-78
2021/08/02 02:06:55;;;;;;;5.00;4.50;;;16.50;1.00;;;;;;5068830;28;20457;-78
2021/08/02 02:09:23;;;;;;;5.27;4.77;;;16.50;1.00;;;;;;5070734;28;20508;-78
2021/08/02 02:11:52;;;;;;;4.40;4.00;;;16.50;1.00;;;;;;5072041;28;20457;-78
2021/08/02 02:14:20;;;;;;;5.73;5.23;;;16.50;1.00;;;;;;5069729;28;20980;-78
2021/08/02 02:16:50;;;;;;;4.60;3.73;;;16.50;1.00;;;;;;5061852;28;20887;-78
2021/08/02 02:19:21;;;;;;;4.60;3.80;;;16.50;1.00;;;;;;5064204;28;20454;-78
2021/08/02 02:21:50;;;;;;;4.10;3.50;;;16.50;1.00;;;;;;5065846;28;20452;-78
2021/08/02 02:24:16;;;;;;;6.70;3.97;;;16.50;1.00;;;;;;5070257;28;20456;-77
2021/08/02 02:26:46;;;;;;;3.80;3.50;;;16.50;1.00;;;;;;5072133;28;20448;-77
2021/08/02 02:29:14;;;;;;;4.73;3.67;;;16.50;1.00;;;;;;5071956;28;20489;-78
2021/08/02 02:31:43;;;;;;;4.10;2.70;;;16.50;1.00;;;;;;5069815;28;20465;-78
2021/08/02 02:34:12;;;;;;;3.53;3.00;;;16.40;1.00;;;;;;5072499;28;20462;-78
2021/08/02 02:36:40;;;;;;;4.43;2.93;;;16.40;1.00;;;;;;5072625;28;20442;-78
2021/08/02 02:39:07;;;;;;;3.90;2.90;;;16.40;1.00;;;;;;5073714;28;20504;-78
2021/08/02 02:41:34;;;;;;;4.17;3.00;;;16.40;1.00;;;;;;5074297;28;20533;-78
2021/08/02 02:44:05;;;;;;;3.50;3.20;;;16.40;1.00;;;;;;5072324;28;20493;-78
2021/08/02 02:46:33;;;;;;;3.10;2.80;;;16.40;1.00;;;;;;5069649;28;20442;-78
2021/08/02 02:49:01;;;;;;;5.67;2.73;;;16.40;1.00;;;;;;5074683;28;20481;-78
2021/08/02 02:51:29;;;;;;;4.80;3.77;;;16.50;1.00;;;;;;5074558;28;20883;-78
2021/08/02 02:53:58;;;;;;;4.20;3.07;;;16.50;1.00;;;;;;5073654;28;21168;-78
2021/08/02 02:56:25;;;;;;;6.23;3.97;;;16.50;1.00;;;;;;5076163;28;20442;-78
2021/08/02 02:58:52;;;;;;;4.13;3.10;;;16.50;1.00;;;;;;5073846;28;20421;-78
2021/08/02 03:01:26;;;;;;;4.80;3.00;;;16.50;1.00;;;;;;5075476;28;20453;-77
2021/08/02 03:03:56;;;;;;;4.17;3.10;;;16.50;1.00;;;;;;5066824;28;20484;-77
2021/08/02 03:06:27;;;;;;;5.10;2.90;;;16.50;1.00;;;;;;5069935;28;20440;-77
2021/08/02 03:08:54;;;;;;;3.30;3.00;;;16.50;1.00;;;;;;5069644;28;20455;-77
2021/08/02 03:11:22;;;;;;;5.47;3.30;;;16.50;1.00;;;;;;5050457;28;21131;-77
2021/08/02 03:13:50;;;;;;;7.17;4.50;;;16.40;1.00;;;;;;5068360;28;20456;-78
2021/08/02 03:16:17;;;;;;;4.47;3.73;;;16.30;1.00;;;;;;5071027;28;21271;-78
2021/08/02 03:18:45;;;;;;;4.03;3.10;;;16.30;1.00;;;;;;5080444;28;20826;-78
2021/08/02 03:21:14;;;;;;;4.27;3.50;;;16.20;1.00;;;;;;5078511;28;20444;-78
2021/08/02 03:23:49;;;;;;;4.50;4.10;;;16.10;1.00;;;;;;5073880;28;20454;-78
2021/08/02 03:26:19;;;;;;;4.20;3.70;;;16.00;1.00;;;;;;5072960;28;20443;-77
2021/08/02 03:28:49;;;;;;;5.90;3.80;;;16.00;1.00;;;;;;5077486;28;20480;-78
2021/08/02 03:31:21;;;;;;;5.10;4.50;;;15.90;1.00;;;;;;5073502;28;20447;-78
2021/08/02 03:33:50;;;;;;;5.50;4.97;;;15.90;1.00;;;;;;5073622;28;20464;-77
2021/08/02 03:36:19;;;;;;;4.90;4.47;;;15.90;1.00;;;;;;5071249;28;20442;-77
2021/08/02 03:38:49;;;;;;;7.30;4.60;;;15.90;1.00;;;;;;5081063;28;20490;-77
2021/08/02 03:41:18;;;;;;;4.90;4.50;;;15.90;1.00;;;;;;5078736;28;20452;-78
2021/08/02 03:43:46;;;;;;;6.13;4.77;;;15.90;1.00;;;;;;5082796;28;20848;-78
2021/08/02 03:46:14;;;;;;;4.47;4.07;;;15.90;1.00;;;;;;5081334;28;20444;-78
2021/08/02 03:48:42;;;;;;;5.43;4.13;;;15.90;1.00;;;;;;5068846;28;20913;-77
2021/08/02 03:51:10;;;;;;;5.03;4.47;;;15.90;1.00;;;;;;5071981;28;21339;-77
2021/08/02 03:53:42;;;;;;;5.97;4.53;;;15.90;1.00;;;;;;5069742;28;20468;-78
2021/08/02 03:56:09;;;;;;;11.50;5.70;;;15.90;1.00;;;;;;5074061;28;20442;-78
2021/08/02 03:58:36;;;;;;;6.27;5.10;;;15.90;1.00;;;;;;5070262;28;20459;-78
2021/08/02 04:01:03;;;;;;;3.90;3.40;;;15.90;1.00;;;;;;5070322;28;20455;-77
2021/08/02 04:03:30;;;;;;;6.77;5.10;;;16.00;1.00;;;;;;5068213;28;20564;-78
2021/08/02 04:05:59;;;;;;;6.83;4.00;;;16.00;1.00;;;;;;5072514;28;20437;-78
2021/08/02 04:08:28;;;;;;;4.30;3.90;;;16.00;1.00;;;;;;5074638;28;20466;-78
2021/08/02 04:10:55;;;;;;;5.10;4.63;;;16.10;1.00;;;;;;5072487;28;20485;-77
2021/08/02 04:13:21;;;;;;;7.07;5.27;;;16.00;1.00;;;;;;5068427;28;20571;-76
2021/08/02 04:15:48;;;;;;;6.17;4.33;;;16.10;1.00;;;;;;5072183;28;20959;-77
2021/08/02 04:18:15;;;;;;;6.60;6.00;;;16.10;1.00;;;;;;5071848;28;20997;-78
2021/08/02 04:20:42;;;;;;;6.97;4.63;;;16.10;1.00;;;;;;5057506;28;21047;-77
2021/08/02 04:23:09;;;;;;;4.43;3.97;;;16.20;1.00;;;;;;5067869;28;20548;-77
2021/08/02 04:25:37;;;;;;;4.93;3.83;;;16.20;1.00;;;;;;5072699;28;20443;-78
2021/08/02 04:28:04;;;;;;;6.40;3.70;;;16.20;1.00;;;;;;5071241;28;20891;-78
2021/08/02 04:30:31;;;;;;;4.33;3.93;;;16.20;1.00;;;;;;5071220;28;20445;-78
2021/08/02 04:32:57;;;;;;;3.83;2.83;;;16.20;1.00;;;;;;5070404;28;20452;-78
2021/08/02 04:35:26;;;;;;;3.33;2.70;;;16.30;1.00;;;;;;5071226;28;20453;-79
2021/08/02 04:37:52;;;;;;;7.17;3.20;;;16.30;1.00;;;;;;5075086;28;20528;-79
2021/08/02 04:40:20;;;;;;;4.20;3.17;;;16.30;1.00;;;;;;5087438;28;20485;-80
2021/08/02 04:42:48;;;;;;;4.60;3.70;;;16.20;1.00;;;;;;5079580;28;20448;-80
2021/08/02 04:45:15;;;;;;;7.47;3.80;;;16.20;1.00;;;;;;5074499;28;20442;-80
2021/08/02 04:47:43;;;;;;;7.43;3.40;;;16.30;1.00;;;;;;5082002;28;20483;-80
2021/08/02 04:50:10;;;;;;;4.80;3.40;;;16.30;1.00;;;;;;5079314;28;20452;-80
2021/08/02 04:52:37;;;;;;;6.20;3.83;;;16.30;1.00;;;;;;5066853;28;20434;-79
2021/08/02 04:55:04;;;;;;;6.13;3.67;;;16.30;1.00;;;;;;5077481;28;20430;-78
2021/08/02 04:57:31;;;;;;;4.77;3.30;;;16.30;1.00;;;;;;5079816;28;20476;-78
2021/08/02 04:59:59;;;;;;;5.13;3.33;;;16.40;1.00;;;;;;5081615;28;20461;-78
2021/08/02 05:02:26;;;;;;;5.50;3.50;;;16.40;1.00;;;;;;5081304;28;21363;-78
2021/08/02 05:04:53;;;;;;;7.70;4.00;;;16.40;1.00;;;;;;5084678;28;20559;-78
2021/08/02 05:07:19;;;;;;;3.43;2.83;;;16.40;1.00;;;;;;5080267;28;20487;-80
2021/08/02 05:09:46;;;;;;;3.77;3.03;;;16.30;1.00;;;;;;5075903;28;20979;-82
2021/08/02 05:12:12;;;;;;;6.27;4.40;;;16.30;1.00;;;;;;5080617;28;21218;-79
2021/08/02 05:14:39;;;;;;;5.60;3.37;;;16.20;1.00;;;;;;5078665;28;20448;-80
2021/08/02 05:17:08;;;;;;;6.73;3.27;;;16.10;1.00;;;;;;5085604;28;20947;-81
2021/08/02 05:19:35;;;;;;;3.97;3.10;;;16.10;1.00;;;;;;5081304;28;20473;-81
2021/08/02 05:22:01;;;;;;;6.20;3.93;;;16.10;1.00;;;;;;5081439;28;20458;-80
2021/08/02 05:24:28;;;;;;;4.27;3.73;;;16.10;1.00;;;;;;5080663;28;20448;-81
2021/08/02 05:26:54;;;;;;;4.83;3.63;;;16.20;1.00;;;;;;5081069;28;20455;-80
2021/08/02 05:29:21;;;;;;;5.80;3.33;;;16.20;1.00;;;;;;5080713;28;20451;-81
2021/08/02 05:31:48;;;;;;;5.67;3.57;;;16.20;1.00;;;;;;5082798;28;21075;-81
2021/08/02 05:34:16;;;;;;;5.10;3.43;;;16.30;1.00;;;;;;5076191;28;20496;-81
2021/08/02 05:36:42;;;;;;;5.97;3.80;;;16.30;1.00;;;;;;5081672;28;20783;-80
2021/08/02 05:39:10;;;;;;;5.00;3.27;;;16.30;1.00;;;;;;5081351;28;21013;-80
2021/08/02 05:41:37;;;;;;;4.10;3.70;;;16.30;1.00;;;;;;5085089;28;21429;-78
2021/08/02 05:44:05;;;;;;;4.67;4.27;;;16.30;1.00;;;;;;5081698;28;20440;-78
2021/08/02 05:46:32;;;;;;;5.00;3.80;;;16.40;1.00;;;;;;5084480;28;21056;-78
2021/08/02 05:48:58;;;;;;;5.77;3.80;;;16.40;1.00;;;;;;5080282;28;20493;-78
2021/08/02 05:51:26;;;;;;;4.20;3.30;;;16.50;1.00;;;;;;5079231;28;20453;-76
2021/08/02 05:53:53;;;;;;;6.43;3.50;;;16.50;1.00;;;;;;5076089;28;21029;-77
2021/08/02 05:56:19;;;;;;;7.67;4.20;;;16.60;1.00;;;;;;5084618;28;21311;-80
2021/08/02 05:58:46;;;;;;;5.50;3.60;;;16.60;1.00;;;;;;5084271;28;20458;-81
2021/08/02 06:01:13;;;;;;;8.77;4.00;;;16.80;1.00;;;;;;5077652;28;20464;-79
2021/08/02 06:03:39;;;;;;;3.50;3.10;;;16.80;1.00;;;;;;5081568;28;20540;-81
2021/08/02 06:06:06;;;;;;;4.90;3.07;;;16.80;1.00;;;;;;5084945;28;20436;-82
2021/08/02 06:08:37;;;;;;;3.50;3.20;;;16.80;1.00;;;;;;5084162;28;20492;-81
2021/08/02 06:11:04;;;;;;;4.17;3.00;;;16.90;1.00;;;;;;5087841;28;20482;-82
2021/08/02 06:13:31;;;;;;;6.70;2.80;;;17.00;1.00;;;;;;5089235;28;20473;-80
2021/08/02 06:15:57;;;;;;;5.03;3.50;;;17.10;1.00;;;;;;5081595;28;20451;-86
2021/08/02 06:18:24;;;;;;;4.37;3.70;;;17.30;1.00;;;;;;5088853;28;20798;-83
2021/08/02 06:20:51;;;;;;;4.30;2.80;;;17.40;1.00;;;;;;5067629;28;20458;-87
2021/08/02 06:23:18;;;;;;;3.97;3.50;;;17.50;1.00;;;;;;5089179;28;21272;-86
2021/08/02 06:25:46;;;;;;;6.33;4.87;;;17.50;1.00;;;;;;5083079;28;20437;-80
2021/08/02 06:28:12;;;;;;;5.50;4.30;;;17.60;1.00;;;;;;5080536;28;20469;-80
2021/08/02 06:30:39;;;;;;;6.67;2.80;;;17.60;1.00;;;;;;5076370;28;20469;-80
2021/08/02 06:33:05;;;;;;;7.10;3.60;;;17.50;1.00;;;;;;5083822;28;20434;-81
2021/08/02 06:35:32;;;;;;;4.00;3.30;;;17.50;1.00;;;;;;5071891;28;20465;-81
2021/08/02 06:37:59;;;;;;;5.60;4.97;;;17.40;1.00;;;;;;5081757;28;20449;-84
2021/08/02 06:40:25;;;;;;;4.47;3.97;;;17.30;1.00;;;;;;5088206;28;20632;-84
2021/08/02 06:42:53;;;;;;;4.40;2.70;;;17.40;1.00;;;;;;5084616;28;20422;-83
2021/08/02 06:45:20;;;;;;;6.10;2.63;;;17.50;1.00;;;;;;5086271;28;20445;-83
2021/08/02 06:47:47;;;;;;;4.37;3.00;;;17.70;1.00;;;;;;5088146;28;20534;-82
2021/08/02 06:50:14;;;;;;;4.23;2.40;;;17.70;1.00;;;;;;5084659;28;20473;-82
2021/08/02 06:52:40;;;;;;;3.87;3.43;;;17.60;1.00;;;;;;5090937;28;21314;-83
2021/08/02 06:55:08;;;;;;;4.87;2.70;;;17.50;1.00;;;;;;5095469;28;20597;-83
2021/08/02 06:57:36;;;;;;;5.30;3.30;;;17.50;1.00;;;;;;5087952;28;20449;-83
2021/08/02 07:00:05;;;;;;;3.87;2.70;;;17.60;1.00;;;;;;5093269;28;20548;-84
2021/08/02 07:02:31;;;;;;;4.40;3.20;;;17.80;1.00;;;;;;5088641;28;20552;-84
2021/08/02 07:04:58;;;;;;;3.67;2.60;;;17.90;1.00;;;;;;5087671;28;21385;-84
2021/08/02 07:07:25;;;;;;;3.27;2.30;;;17.90;1.00;;;;;;5093544;28;20458;-84
2021/08/02 07:09:52;;;;;;;3.37;2.50;;;17.80;1.00;;;;;;5087441;28;20555;-84
2021/08/02 07:12:18;;;;;;;6.83;2.40;;;17.90;1.00;;;;;;5089469;28;20461;-84
2021/08/02 07:14:45;;;;;;;4.50;2.43;;;18.00;1.00;;;;;;5090353;28;21641;-84
2021/08/02 07:17:13;;;;;;;3.90;1.87;;;18.10;1.00;;;;;;5087307;28;20426;-84
2021/08/02 07:19:40;;;;;;;3.80;2.77;;;18.20;1.00;;;;;;5092611;28;20480;-83
2021/08/02 07:22:07;;;;;;;4.47;2.17;;;18.30;1.00;;;;;;5093005;28;20457;-84
2021/08/02 07:24:33;;;;;;;3.80;1.90;;;18.40;1.00;;;;;;5089706;28;20437;-83
2021/08/02 07:27:00;;;;;;;5.60;2.10;;;18.40;1.00;;;;;;5088383;28;20477;-84
2021/08/02 07:29:26;;;;;;;3.90;2.17;;;18.40;1.00;;;;;;5069176;28;20444;-82
2021/08/02 07:31:53;;;;;;;3.40;1.70;;;18.40;1.00;;;;;;5095632;28;20413;-83
2021/08/02 07:34:21;;;;;;;3.33;1.70;;;18.30;1.00;;;;;;5102412;27;20496;-82
2021/08/02 07:36:48;;;;;;;3.63;1.80;;;18.30;1.00;;;;;;5105205;28;20413;-83
2021/08/02 07:39:15;;;;;;;2.37;1.77;;;18.20;1.00;;;;;;5109179;28;20429;-84
2021/08/02 07:41:42;;;;;;;3.47;2.07;;;18.20;1.00;;;;;;5089683;28;20444;-83
2021/08/02 07:44:09;;;;;;;3.63;2.33;;;18.50;1.00;;;;;;5089126;28;20462;-82
2021/08/02 07:46:36;;;;;;;10.03;2.63;;;18.60;1.00;;;;;;5091565;28;20411;-82
2021/08/02 07:49:03;;;;;;;7.97;2.43;;;18.80;1.00;;;;;;5108983;28;21318;-82
2021/08/02 07:51:34;;;;;;;3.83;1.93;;;18.90;1.00;;;;;;5111661;28;20414;-82
2021/08/02 07:54:02;;;;;;;2.63;1.63;;;19.10;1.00;;;;;;5096511;28;20437;-82
2021/08/02 07:56:29;;;;;;;3.73;3.13;;;19.20;1.00;;;;;;5110937;28;20464;-83
2021/08/02 07:58:57;;;;;;;2.40;1.73;;;19.30;1.00;;;;;;5111484;28;20465;-84
2021/08/02 08:01:24;;;;;;;2.30;1.80;;;19.50;1.00;;;;;;5118789;28;20609;-84
2021/08/02 08:03:51;;;;;;;2.30;1.57;;;19.50;1.00;;;;;;5115885;27;20458;-85
2021/08/02 08:06:18;;;;;;;5.43;1.80;;;19.40;1.00;;;;;;5114898;27;20441;-83
2021/08/02 08:08:59;;;;;;;6.30;2.50;;;19.30;1.00;;;;;;5096854;28;20442;-83
2021/08/02 08:11:26;;;;;;;6.80;2.60;;;19.50;1.00;;;;;;5219482;22;20440;-81
2021/08/02 08:13:53;;;;;;;3.03;2.03;;;19.90;1.00;;;;;;5109284;27;20486;-84
2021/08/02 08:16:20;;;;;;;3.13;2.00;;;20.10;1.00;;;;;;5103679;27;20404;-81
2021/08/02 08:18:47;;;;;;;4.17;2.43;;;20.20;1.00;;;;;;5089550;28;20496;-84
2021/08/02 08:21:28;;;;;;;3.27;1.80;;;19.80;1.00;;;;;;5084736;28;20416;-82
2021/08/02 08:23:57;;;;;;;2.10;1.50;;;19.30;1.00;;;;;;5080750;28;20429;-80
2021/08/02 08:26:24;;;;;;;4.47;1.70;;;19.10;1.00;;;;;;5079103;28;20413;-81
2021/08/02 08:28:50;;;;;;;2.50;1.67;;;19.10;1.00;;;;;;5069581;28;20494;-80
2021/08/02 08:31:18;;;;;;;2.43;1.47;;;19.20;1.00;;;;;;5067345;28;20448;-82
2021/08/02 08:33:46;;;;;;;4.20;2.10;;;19.20;1.00;;;;;;5070719;28;20435;-81
2021/08/02 08:36:15;;;;;;;3.10;1.90;;;19.30;1.00;;;;;;5065704;28;20432;-83
2021/08/02 08:38:42;;;;;;;3.20;1.90;;;19.40;1.00;;;;;;5065209;28;20475;-80
2021/08/02 08:41:12;;;;;;;2.20;1.53;;;19.70;1.00;;;;;;5071017;28;20400;-82
2021/08/02 08:43:39;;;;;;;3.20;1.37;;;19.90;1.00;;;;;;5071292;28;20443;-82
2021/08/02 08:46:06;;;;;;;2.53;1.63;;;20.10;1.00;;;;;;5070095;28;20443;-79
2021/08/02 08:48:33;;;;;;;2.67;1.27;;;20.30;1.00;;;;;;5073148;28;20418;-81
2021/08/02 08:51:02;;;;;;;2.57;1.60;;;20.40;1.00;;;;;;5065269;28;20547;-84
2021/08/02 08:53:29;;;;;;;2.03;1.50;;;20.30;1.00;;;;;;5070129;28;20447;-81
2021/08/02 08:55:56;;;;;;;4.10;1.40;;;20.30;1.00;;;;;;5066269;28;20441;-84
2021/08/02 08:58:24;;;;;;;3.90;1.53;;;20.40;1.00;;;;;;5060298;28;20567;-85
2021/08/02 09:00:59;;;;;;;3.63;1.77;;;20.40;1.00;;;;;;5061202;28;20436;-84
2021/08/02 09:03:27;;;;;;;3.43;1.63;;;20.40;1.00;;;;;;5068887;28;20442;-84
2021/08/02 09:06:01;;;;;;;2.53;1.90;;;20.50;1.00;;;;;;5050272;28;20515;-83
2021/08/02 09:08:27;;;;;;;4.00;2.10;;;20.50;1.00;;;;;;5068507;28;20587;-83
2021/08/02 09:10:58;;;;;;;3.20;1.40;;;20.80;1.00;;;;;;5062092;28;20418;-83
2021/08/02 09:13:33;;;;;;;2.63;1.53;;;21.40;1.00;;;;;;5068666;28;20584;-82
2021/08/02 09:16:11;;;;;;;4.33;1.57;;;21.60;1.00;;;;;;5071312;28;20603;-84
2021/08/02 09:18:38;;;;;;;3.87;1.47;;;21.90;1.00;;;;;;5073171;28;20473;-83
2021/08/02 09:21:07;;;;;;;3.27;1.60;;;21.90;1.00;;;;;;5066278;28;20501;-84
2021/08/02 09:23:35;;;;;;;3.73;1.53;;;21.60;1.00;;;;;;5068843;28;20457;-83
2021/08/02 09:26:02;;;;;;;3.50;2.07;;;21.30;1.00;;;;;;5065098;28;20413;-83
2021/08/02 09:28:30;;;;;;;2.47;1.77;;;21.20;1.00;;;;;;5082772;28;20511;-83
2021/08/02 09:31:01;;;;;;;2.60;1.40;;;21.10;1.00;;;;;;5082106;28;20473;-85
2021/08/02 09:33:32;;;;;;;4.60;2.17;;;21.30;1.00;;;;;;5078398;28;20431;-82
2021/08/02 09:36:01;;;;;;;3.17;1.43;;;21.50;1.00;;;;;;5080569;28;20454;-84
2021/08/02 09:38:28;;;;;;;4.00;1.60;;;22.70;1.00;;;;;;5079079;28;20451;-83
2021/08/02 09:40:58;;;;;;;2.50;2.03;;;24.50;1.00;;;;;;5077396;28;20425;-83
2021/08/02 09:43:26;;;;;;;3.23;1.60;;;25.50;1.00;;;;;;5075354;28;20561;-83
2021/08/02 09:45:54;;;;;;;4.87;1.47;;;25.60;1.00;;;;;;5068749;28;20419;-83
2021/08/02 09:48:34;;;;;;;2.27;1.43;;;26.40;1.00;;;;;;5067088;28;20427;-83
2021/08/02 09:51:08;;;;;;;3.67;1.87;;;27.20;1.00;;;;;;5071925;28;20459;-82
2021/08/02 09:53:39;;;;;;;3.40;1.70;;;26.70;1.00;;;;;;5072208;28;20443;-82
2021/08/02 09:56:06;;;;;;;2.77;1.00;;;25.40;1.00;;;;;;5068936;28;20458;-82
2021/08/02 09:58:33;;;;;;;4.47;1.60;;;24.30;1.00;;;;;;5075648;28;20422;-82
2021/08/02 10:01:00;;;;;;;2.50;1.23;;;23.50;1.00;;;;;;5055795;28;20445;-82
2021/08/02 10:03:28;;;;;;;2.73;1.67;;;22.90;1.00;;;;;;5073797;28;20523;-83
2021/08/02 10:05:55;;;;;;;2.07;1.30;;;22.50;1.00;;;;;;5063129;28;20446;-84
2021/08/02 10:08:23;;;;;;;3.47;1.80;;;22.20;1.00;;;;;;5066037;28;20446;-83
2021/08/02 10:10:49;;;;;;;3.90;1.77;;;22.30;1.00;;;;;;5066323;28;21491;-80
2021/08/02 10:13:23;;;;;;;2.63;1.20;;;22.60;1.00;;;;;;5072230;28;20523;-82
2021/08/02 10:15:52;;;;;;;2.10;1.07;;;23.70;1.00;;;;;;5066475;28;21301;-81
2021/08/02 10:18:20;;;;;;;2.80;1.73;;;25.20;1.00;;;;;;5057278;28;20480;-83
2021/08/02 10:20:49;;;;;;;2.53;1.33;;;25.60;1.00;;;;;;5057752;28;21482;-80
2021/08/02 10:23:24;;;;;;;4.23;2.23;;;25.40;1.00;;;;;;5061103;28;20441;-81
2021/08/02 10:25:50;;;;;;;2.50;1.47;;;24.80;1.00;;;;;;5060591;28;20452;-82
2021/08/02 10:28:20;;;;;;;5.93;2.10;;;24.30;1.00;;;;;;5065354;28;20460;-80
2021/08/02 10:30:49;;;;;;;2.73;1.37;;;24.30;1.00;;;;;;5061712;28;20518;-81
2021/08/02 10:33:16;;;;;;;1.90;1.27;;;24.30;1.00;;;;;;5057384;28;20600;-81
2021/08/02 10:35:44;;;;;;;3.30;1.77;;;24.10;1.00;;;;;;5062605;28;20464;-83
2021/08/02 10:38:14;;;;;;;2.77;1.63;;;24.20;1.00;;;;;;5054401;28;20469;-79
2021/08/02 10:40:49;;;;;;;2.93;1.37;;;25.10;1.00;;;;;;5045682;28;21145;-83
2021/08/02 10:43:28;;;;;;;2.50;1.30;;;26.00;1.00;;;;;;5060711;28;20454;-81
2021/08/02 10:45:56;;;;;;;2.67;1.33;;;27.40;1.00;;;;;;5055402;28;20540;-83
2021/08/02 10:48:25;;;;;;;2.00;1.30;;;28.00;1.00;;;;;;5053018;28;20455;-81
2021/08/02 10:50:52;;;;;;;3.10;1.50;;;27.20;1.00;;;;;;5050784;28;20460;-83
2021/08/02 10:53:20;;;;;;;3.13;1.43;;;26.00;1.00;;;;;;5053802;28;20462;-81
2021/08/02 10:55:49;;;;;;;4.07;1.60;;;25.10;1.00;;;;;;5057153;28;20442;-82
2021/08/02 10:58:26;;;;;;;3.00;1.57;;;24.10;1.00;;;;;;5052470;28;20549;-83
2021/08/02 11:00:57;;;;;;;6.17;5.30;;;23.30;1.00;;;;;;5054772;28;20473;-83
2021/08/02 11:03:34;;;;;;;2.50;1.20;;;23.10;1.00;;;;;;5063883;28;20423;-81
2021/08/02 11:06:09;;;;;;;3.90;1.80;;;22.70;1.00;;;;;;5058050;28;20438;-84
2021/08/02 11:08:45;;;;;;;3.77;1.60;;;22.60;1.00;;;;;;5055064;28;20466;-83
2021/08/02 11:11:19;;;;;;;2.97;1.60;;;22.60;1.00;;;;;;5062420;28;20425;-84
2021/08/02 11:13:45;;;;;;;2.37;1.67;;;22.80;1.00;;;;;;5065362;28;20459;-84
2021/08/02 11:16:12;;;;;;;4.37;1.60;;;23.10;1.00;;;;;;5063174;28;20464;-83
2021/08/02 11:18:43;;;;;;;2.03;1.20;;;23.10;1.00;;;;;;5060024;28;20435;-83
2021/08/02 11:21:21;;;;;;;3.23;1.40;;;22.70;1.00;;;;;;5063273;28;20452;-84
2021/08/02 11:23:49;;;;;;;4.43;1.70;;;22.50;1.00;;;;;;5061915;28;20433;-83
2021/08/02 11:26:16;;;;;;;2.13;1.53;;;22.90;1.00;;;;;;5063682;28;20474;-85
2021/08/02 11:28:44;;;;;;;3.10;1.70;;;23.60;1.00;;;;;;5064734;28;20977;-85
2021/08/02 11:31:12;;;;;;;3.60;1.83;;;24.90;1.00;;;;;;5058301;28;20495;-83
2021/08/02 11:33:41;;;;;;;2.07;1.30;;;26.30;1.00;;;;;;5061060;28;20562;-86
2021/08/02 11:36:15;;;;;;;2.80;1.50;;;27.90;1.00;;;;;;5056392;28;20458;-86
2021/08/02 11:38:42;;;;;;;3.37;1.80;;;27.60;1.00;;;;;;5066885;28;20498;-84
2021/08/02 11:41:10;;;;;;;1.63;1.30;;;28.10;1.00;;;;;;5062076;28;20462;-85
2021/08/02 11:43:43;;;;;;;2.07;1.43;;;30.10;1.00;;;;;;5071030;28;20449;-84
2021/08/02 11:46:11;;;;;;;2.23;0.93;;;31.80;1.00;;;;;;5061066;28;20413;-86
2021/08/02 11:48:38;;;;;;;1.97;1.20;;;32.70;1.00;;;;;;5059904;28;20464;-85
2021/08/02 11:51:05;;;;;;;3.60;2.10;;;32.80;1.00;;;;;;5066984;28;20454;-84
2021/08/02 11:53:35;;;;;;;2.30;1.07;;;33.10;1.00;;;;;;5065165;28;20444;-84
2021/08/02 11:56:02;;;;;;;2.70;1.47;;;33.90;1.00;;;;;;5072077;28;20463;-84
2021/08/02 11:58:39;;;;;;;4.47;2.20;;;34.10;1.00;;;;;;5066001;28;20448;-83
2021/08/02 12:01:06;;;;;;;2.77;1.30;;;33.90;1.00;;;;;;5067655;28;20523;-84
2021/08/02 12:03:33;;;;;;;4.93;1.50;;;33.90;1.00;;;;;;5064318;28;20439;-84
2021/08/02 12:06:04;;;;;;;2.80;1.50;;;33.80;1.00;;;;;;5038631;28;20536;-83
2021/08/02 12:08:32;;;;;;;3.60;1.47;;;33.50;1.00;;;;;;5057275;28;21055;-83
2021/08/02 12:11:01;;;;;;;2.83;1.60;;;32.70;1.00;;;;;;5063821;28;20450;-83
2021/08/02 12:13:41;;;;;;;2.63;1.70;;;30.90;1.00;;;;;;5065391;28;20524;-82
2021/08/02 12:16:09;;;;;;;2.57;1.67;;;31.00;1.00;;;;;;5061590;28;20464;-83
2021/08/02 12:18:36;;;;;;;2.37;1.40;;;31.40;1.00;;;;;;5059651;28;20481;-84
2021/08/02 12:21:22;;;;;;;7.40;6.40;;;32.80;1.00;;;;;;5036934;28;20447;-84
2021/08/02 12:23:49;;;;;;;3.43;1.40;;;33.10;1.00;;;;;;5037945;28;21393;-81
2021/08/02 12:26:19;;;;;;;3.30;1.53;;;33.30;1.00;;;;;;5062879;28;20904;-84
2021/08/02 12:28:49;;;;;;;1.73;1.30;;;33.70;1.00;;;;;;5060355;28;21364;-83
2021/08/02 12:31:17;;;;;;;3.50;1.50;;;33.50;1.00;;;;;;5056221;28;20490;-85
2021/08/02 12:33:47;;;;;;;3.93;1.83;;;33.10;1.00;;;;;;5061219;28;20431;-86
2021/08/02 12:36:16;;;;;;;2.90;1.50;;;33.80;1.00;;;;;;5059155;28;20435;-84
2021/08/02 12:38:45;;;;;;;2.83;1.63;;;34.70;1.00;;;;;;5060933;28;21080;-84
2021/08/02 12:41:12;;;;;;;1.83;1.10;;;35.40;1.00;;;;;;5065092;28;20448;-83
2021/08/02 12:43:39;;;;;;;2.70;1.23;;;35.00;1.00;;;;;;5062389;28;20471;-85
2021/08/02 12:46:07;;;;;;;2.07;1.33;;;35.00;1.00;;;;;;5059362;28;20547;-83
2021/08/02 12:48:34;;;;;;;3.60;1.53;;;35.00;1.00;;;;;;5062739;28;20423;-82
2021/08/02 12:51:00;;;;;;;4.47;1.53;;;35.30;1.00;;;;;;5045036;28;20424;-83
2021/08/02 12:53:27;;;;;;;2.43;1.07;;;36.10;1.00;;;;;;5068055;28;20455;-83
2021/08/02 12:55:54;;;;;;;2.60;1.47;;;35.70;1.00;;;;;;5067689;28;20526;-84
2021/08/02 12:58:21;;;;;;;1.80;1.23;;;33.40;1.00;;;;;;5062776;28;20466;-82
2021/08/02 13:00:48;;;;;;;2.17;1.53;;;31.80;1.00;;;;;;5070113;28;20440;-82
2021/08/02 13:03:17;;;;;;;3.40;1.90;;;30.70;1.00;;;;;;5073283;28;20486;-83
2021/08/02 13:05:44;;;;;;;3.03;1.40;;;29.20;1.00;;;;;;5080725;28;20522;-83